createdAt,value
2022-11-07T00:02:21.527Z,19.80
2022-11-07T00:04:49.661Z,18.95
2022-11-07T00:07:19.172Z,22.08
2022-11-07T00:09:47.263Z,20.48
2022-11-07T00:12:15.431Z,20.30
2022-11-07T00:14:43.559Z,20.33
2022-11-07T00:17:11.699Z,21.83
2022-11-07T00:19:39.839Z,22.00
2022-11-07T00:22:07.955Z,21.20
2022-11-07T00:24:37.489Z,19.80
2022-11-07T00:27:05.660Z,19.95
2022-11-07T00:29:33.841Z,20.90
2022-11-07T00:32:01.972Z,20.45
2022-11-07T00:34:30.116Z,21.10
2022-11-07T00:36:58.222Z,21.00
2022-11-07T00:39:26.324Z,22.40
2022-11-07T00:41:55.915Z,24.30
2022-11-07T00:44:24.028Z,22.70
2022-11-07T00:46:52.135Z,24.00
2022-11-07T00:49:20.230Z,24.45
2022-11-07T00:51:48.350Z,24.17
2022-11-07T00:54:16.438Z,23.25
2022-11-07T00:56:44.542Z,22.88
2022-11-07T00:59:14.222Z,23.70
2022-11-07T01:01:42.467Z,21.88
2022-11-07T01:04:30.907Z,24.30
2022-11-07T01:06:59.480Z,25.05
2022-11-07T01:09:27.875Z,22.60
2022-11-07T01:11:55.971Z,24.02
2022-11-07T01:14:26.458Z,23.63
2022-11-07T01:16:54.686Z,22.70
2022-11-07T01:19:22.800Z,25.77
2022-11-07T01:21:51.138Z,25.35
2022-11-07T01:24:19.412Z,25.08
2022-11-07T01:26:48.935Z,25.45
2022-11-07T01:29:17.997Z,24.88
2022-11-07T01:31:48.213Z,23.48
2022-11-07T01:34:17.782Z,25.73
2022-11-07T01:36:46.510Z,28.60
2022-11-07T01:39:14.738Z,24.80
2022-11-07T01:41:43.238Z,26.02
2022-11-07T01:44:53.332Z,24.17
2022-11-07T01:47:24.975Z,25.95
2022-11-07T01:49:54.395Z,23.55
2022-11-07T01:52:25.959Z,22.73
2022-11-07T01:54:59.478Z,24.20
2022-11-07T01:57:32.732Z,25.52
2022-11-07T02:00:04.129Z,24.77
2022-11-07T02:02:35.412Z,23.35
2022-11-07T02:05:06.239Z,25.50
2022-11-07T02:07:34.845Z,25.40
2022-11-07T02:10:04.506Z,22.23
2022-11-07T02:12:32.707Z,24.00
2022-11-07T02:15:01.132Z,25.05
2022-11-07T02:17:30.179Z,23.85
2022-11-07T02:19:59.883Z,23.30
2022-11-07T02:22:35.223Z,23.92
2022-11-07T02:25:08.024Z,24.08
2022-11-07T02:27:37.231Z,25.55
2022-11-07T02:30:09.784Z,22.75
2022-11-07T02:32:37.915Z,24.15
2022-11-07T02:35:08.672Z,24.80
2022-11-07T02:37:40.608Z,24.05
2022-11-07T02:40:11.684Z,21.40
2022-11-07T02:42:46.382Z,24.33
2022-11-07T02:45:18.596Z,27.27
2022-11-07T02:47:46.812Z,26.75
2022-11-07T02:50:17.202Z,27.35
2022-11-07T02:52:45.309Z,25.38
2022-11-07T02:55:15.904Z,27.00
2022-11-07T02:57:44.265Z,25.73
2022-11-07T03:00:15.106Z,25.75
2022-11-07T03:02:47.041Z,26.58
2022-11-07T03:05:16.360Z,26.42
2022-11-07T03:07:45.466Z,25.38
2022-11-07T03:10:16.837Z,25.33
2022-11-07T03:12:45.620Z,25.55
2022-11-07T03:15:13.939Z,27.13
2022-11-07T03:17:42.715Z,25.98
2022-11-07T03:20:12.825Z,27.10
2022-11-07T03:22:41.219Z,24.40
2022-11-07T03:25:09.499Z,26.60
2022-11-07T03:27:47.025Z,25.75
2022-11-07T03:30:15.598Z,25.88
2022-11-07T03:32:43.924Z,26.55
2022-11-07T03:35:12.106Z,26.23
2022-11-07T03:37:40.278Z,27.52
2022-11-07T03:40:09.331Z,26.58
2022-11-07T03:42:40.911Z,27.98
2022-11-07T03:45:14.571Z,26.23
2022-11-07T03:47:44.478Z,25.05
2022-11-07T03:50:15.163Z,25.40
2022-11-07T03:52:43.342Z,27.13
2022-11-07T03:55:12.568Z,27.83
2022-11-07T03:57:42.027Z,27.67
2022-11-07T04:00:11.764Z,29.48
2022-11-07T04:02:43.899Z,29.45
2022-11-07T04:05:12.540Z,32.63
2022-11-07T04:07:40.698Z,32.45
2022-11-07T04:10:09.092Z,31.65
2022-11-07T04:12:54.500Z,28.88
2022-11-07T04:15:41.576Z,29.65
2022-11-07T04:18:09.686Z,28.40
2022-11-07T04:20:37.871Z,27.50
2022-11-07T04:23:06.106Z,27.25
2022-11-07T04:25:51.396Z,27.20
2022-11-07T04:28:19.503Z,29.10
2022-11-07T04:30:49.063Z,26.02
2022-11-07T04:33:17.371Z,25.23
2022-11-07T04:35:45.742Z,26.85
2022-11-07T04:38:13.872Z,40.17
2022-11-07T04:40:42.107Z,53.83
2022-11-07T04:43:11.034Z,31.27
2022-11-07T04:45:40.156Z,30.85
2022-11-07T04:48:10.822Z,27.63
2022-11-07T04:50:38.914Z,27.70
2022-11-07T04:53:07.005Z,28.25
2022-11-07T04:55:35.211Z,28.77
2022-11-07T04:58:03.294Z,27.67
2022-11-07T05:00:31.617Z,26.67
2022-11-07T05:02:59.862Z,26.17
2022-11-07T05:05:29.742Z,26.55
2022-11-07T05:07:57.852Z,24.00
2022-11-07T05:10:28.714Z,24.98
2022-11-07T05:12:57.597Z,26.10
2022-11-07T05:15:25.836Z,24.48
2022-11-07T05:17:53.964Z,23.20
2022-11-07T05:20:31.583Z,23.13
2022-11-07T05:23:17.700Z,25.10
2022-11-07T05:25:48.613Z,33.30
2022-11-07T05:28:23.721Z,27.40
2022-11-07T05:30:59.696Z,26.55
2022-11-07T05:33:27.863Z,24.48
2022-11-07T05:35:57.457Z,37.60
2022-11-07T05:38:25.537Z,27.10
2022-11-07T05:40:53.677Z,23.50
2022-11-07T05:43:21.891Z,22.20
2022-11-07T05:45:50.060Z,23.25
2022-11-07T05:48:18.456Z,23.17
2022-11-07T05:50:46.549Z,24.48
2022-11-07T05:53:16.362Z,26.55
2022-11-07T05:55:44.707Z,22.30
2022-11-07T05:58:13.130Z,24.60
2022-11-07T06:00:42.011Z,27.17
2022-11-07T06:03:10.931Z,26.30
2022-11-07T06:05:40.034Z,26.63
2022-11-07T06:08:09.301Z,26.85
2022-11-07T06:10:39.713Z,24.15
2022-11-07T06:13:11.337Z,26.42
2022-11-07T06:15:40.058Z,28.05
2022-11-07T06:18:12.394Z,25.58
2022-11-07T06:20:40.684Z,29.27
2022-11-07T06:23:08.844Z,27.70
2022-11-07T06:25:38.532Z,28.77
2022-11-07T06:28:08.122Z,25.98
2022-11-07T06:30:37.003Z,25.23
2022-11-07T06:33:06.824Z,26.83
2022-11-07T06:35:37.061Z,25.48
2022-11-07T06:38:05.774Z,24.25
2022-11-07T06:40:34.211Z,25.77
2022-11-07T06:43:11.330Z,23.88
2022-11-07T06:45:39.813Z,26.13
2022-11-07T06:48:08.360Z,27.73
2022-11-07T06:50:36.651Z,27.63
2022-11-07T06:53:05.212Z,26.80
2022-11-07T06:55:34.715Z,24.92
2022-11-07T06:58:03.204Z,26.25
2022-11-07T07:00:34.506Z,25.63
2022-11-07T07:03:02.925Z,26.02
2022-11-07T07:05:31.068Z,25.80
2022-11-07T07:07:59.139Z,24.38
2022-11-07T07:10:27.356Z,28.00
2022-11-07T07:12:56.595Z,25.85
2022-11-07T07:15:25.069Z,24.65
2022-11-07T07:17:54.515Z,27.23
2022-11-07T07:20:22.718Z,22.87
2022-11-07T07:22:57.791Z,23.77
2022-11-07T07:25:28.484Z,23.23
2022-11-07T07:27:56.592Z,21.93
2022-11-07T07:30:24.795Z,22.77
2022-11-07T07:32:54.338Z,22.23
2022-11-07T07:35:22.774Z,24.00
2022-11-07T07:37:52.065Z,24.10
2022-11-07T07:40:21.006Z,23.67
2022-11-07T07:42:49.464Z,23.80
2022-11-07T07:45:18.044Z,24.50
2022-11-07T07:47:46.198Z,22.13
2022-11-07T07:50:15.809Z,24.60
2022-11-07T07:52:44.069Z,27.33
2022-11-07T07:55:12.243Z,26.00
2022-11-07T07:57:41.964Z,30.53
2022-11-07T08:00:11.717Z,25.87
2022-11-07T08:02:44.325Z,29.87
2022-11-07T08:05:13.484Z,29.40
2022-11-07T08:07:50.811Z,26.00
2022-11-07T08:10:41.026Z,26.47
2022-11-07T08:13:08.892Z,25.10
2022-11-07T08:15:37.020Z,25.43
2022-11-07T08:18:05.872Z,22.27
2022-11-07T08:20:33.976Z,24.00
2022-11-07T08:23:05.181Z,25.43
2022-11-07T08:25:33.607Z,22.00
2022-11-07T08:28:01.878Z,25.80
2022-11-07T08:30:31.764Z,25.27
2022-11-07T08:33:01.514Z,22.60
2022-11-07T08:35:29.857Z,21.77
2022-11-07T08:37:58.690Z,21.90
2022-11-07T08:40:28.407Z,19.70
2022-11-07T08:43:00.423Z,19.10
2022-11-07T08:45:28.763Z,19.77
2022-11-07T08:48:00.507Z,20.60
2022-11-07T08:50:28.733Z,21.17
2022-11-07T08:53:02.220Z,20.73
2022-11-07T08:55:32.437Z,20.97
2022-11-07T08:58:01.206Z,22.33
2022-11-07T09:00:29.984Z,20.57
2022-11-07T09:03:24.269Z,20.20
2022-11-07T09:05:46.486Z,20.63
2022-11-07T09:08:14.665Z,19.90
2022-11-07T09:10:44.721Z,20.93
2022-11-07T09:13:14.939Z,19.10
2022-11-07T09:15:47.861Z,19.30
2022-11-07T09:18:18.751Z,20.93
2022-11-07T09:20:47.354Z,21.07
2022-11-07T09:23:15.865Z,20.30
2022-11-07T09:25:46.217Z,20.07
2022-11-07T09:28:14.916Z,20.00
2022-11-07T09:30:43.108Z,20.80
2022-11-07T09:33:11.318Z,23.60
2022-11-07T09:35:39.498Z,20.20
2022-11-07T09:38:07.658Z,19.33
2022-11-07T09:40:50.052Z,19.17
2022-11-07T09:43:33.673Z,17.33
2022-11-07T09:46:09.848Z,18.63
2022-11-07T09:48:44.199Z,15.73
2022-11-07T09:51:16.709Z,16.63
2022-11-07T09:53:49.132Z,17.17
2022-11-07T09:56:19.126Z,16.37
2022-11-07T09:58:52.225Z,16.13
2022-11-07T10:01:22.516Z,15.53
2022-11-07T10:04:22.971Z,14.83
2022-11-07T10:06:47.343Z,15.33
2022-11-07T10:09:20.291Z,15.03
2022-11-07T10:11:57.364Z,16.50
2022-11-07T10:14:36.035Z,16.77
2022-11-07T10:17:13.479Z,16.10
2022-11-07T10:19:57.624Z,15.53
2022-11-07T10:22:40.169Z,16.83
2022-11-07T10:25:31.250Z,15.43
2022-11-07T10:28:14.433Z,15.63
2022-11-07T10:30:44.687Z,15.77
2022-11-07T10:33:25.886Z,15.73
2022-11-07T10:35:57.987Z,14.73
2022-11-07T10:38:28.332Z,14.90
2022-11-07T10:40:56.653Z,14.97
2022-11-07T10:43:34.157Z,14.83
2022-11-07T10:46:03.749Z,14.30
2022-11-07T10:48:33.310Z,15.40
2022-11-07T10:51:01.471Z,15.83
2022-11-07T10:53:30.117Z,15.23
2022-11-07T10:55:59.556Z,15.20
2022-11-07T10:58:31.262Z,13.30
2022-11-07T11:01:02.717Z,13.93
2022-11-07T11:03:43.681Z,14.40
2022-11-07T11:06:21.768Z,13.63
2022-11-07T11:08:51.952Z,14.83
2022-11-07T11:11:28.860Z,14.40
2022-11-07T11:14:12.341Z,15.13
2022-11-07T11:16:42.668Z,14.10
2022-11-07T11:19:22.717Z,16.37
2022-11-07T11:21:53.006Z,15.20
2022-11-07T11:24:33.499Z,15.63
2022-11-07T11:27:05.998Z,12.80
2022-11-07T11:29:42.899Z,14.03
2022-11-07T11:32:21.297Z,13.40
2022-11-07T11:35:06.803Z,12.93
2022-11-07T11:37:38.725Z,13.97
2022-11-07T11:40:17.952Z,12.60
2022-11-07T11:42:56.021Z,13.93
2022-11-07T11:45:35.163Z,13.07
2022-11-07T11:48:11.936Z,13.40
2022-11-07T11:50:45.922Z,13.10
2022-11-07T11:53:17.519Z,13.53
2022-11-07T11:55:54.388Z,13.93
2022-11-07T11:58:36.261Z,14.03
2022-11-07T12:01:15.632Z,14.20
2022-11-07T12:04:02.537Z,14.00
2022-11-07T12:06:37.616Z,13.67
2022-11-07T12:09:19.929Z,13.90
2022-11-07T12:12:01.217Z,12.67
2022-11-07T12:14:58.292Z,14.77
2022-11-07T12:17:35.037Z,14.00
2022-11-07T12:20:11.649Z,12.90
2022-11-07T12:22:48.526Z,12.90
2022-11-07T12:25:24.961Z,13.63
2022-11-07T12:28:01.385Z,15.00
2022-11-07T12:30:42.519Z,14.30
2022-11-07T12:33:24.348Z,13.10
2022-11-07T12:35:55.749Z,13.67
2022-11-07T12:38:56.720Z,13.67
2022-11-07T12:41:35.445Z,14.80
2022-11-07T12:44:17.496Z,14.87
2022-11-07T12:46:50.136Z,14.63
2022-11-07T12:49:47.896Z,13.57
2022-11-07T12:52:31.584Z,15.90
2022-11-07T12:55:03.814Z,14.70
2022-11-07T12:57:34.572Z,13.50
2022-11-07T13:00:06.571Z,14.37
2022-11-07T13:02:48.283Z,12.90
2022-11-07T13:05:34.435Z,13.53
2022-11-07T13:08:08.530Z,13.33
2022-11-07T13:10:48.069Z,14.20
2022-11-07T13:13:22.540Z,13.87
2022-11-07T13:16:14.012Z,14.57
2022-11-07T13:18:39.112Z,15.83
2022-11-07T13:21:09.409Z,13.80
2022-11-07T13:23:38.584Z,14.27
2022-11-07T13:26:26.342Z,15.20
2022-11-07T13:29:00.194Z,13.93
2022-11-07T13:31:33.919Z,14.37
2022-11-07T13:34:11.716Z,12.37
2022-11-07T13:36:41.457Z,13.73
2022-11-07T13:39:13.293Z,11.97
2022-11-07T13:41:44.532Z,12.47
2022-11-07T13:44:22.625Z,14.00
2022-11-07T13:46:54.836Z,13.57
2022-11-07T13:49:27.999Z,14.00
2022-11-07T13:52:02.501Z,13.53
2022-11-07T13:54:35.819Z,13.27
2022-11-07T13:57:09.516Z,13.80
2022-11-07T13:59:45.321Z,13.40
2022-11-07T14:02:21.109Z,13.87
2022-11-07T14:07:47.895Z,14.50
2022-11-07T14:10:25.030Z,14.20
2022-11-07T14:12:58.495Z,14.40
2022-11-07T14:15:26.842Z,13.60
2022-11-07T14:17:56.086Z,13.60
2022-11-07T14:20:24.340Z,15.27
2022-11-07T14:22:56.118Z,15.37
2022-11-07T14:25:27.979Z,14.17
2022-11-07T14:27:56.718Z,13.93
2022-11-07T14:30:26.892Z,14.57
2022-11-07T14:32:57.957Z,16.27
2022-11-07T14:35:30.237Z,16.30
2022-11-07T14:38:00.719Z,17.30
2022-11-07T14:40:28.992Z,16.30
2022-11-07T14:42:57.215Z,14.57
2022-11-07T14:45:56.563Z,15.50
2022-11-07T14:48:15.350Z,15.70
2022-11-07T14:50:45.358Z,15.77
2022-11-07T14:53:25.077Z,15.70
2022-11-07T14:55:55.910Z,17.00
2022-11-07T14:58:26.199Z,17.47
2022-11-07T15:00:56.795Z,17.97
2022-11-07T15:03:32.832Z,17.00
2022-11-07T15:06:01.162Z,16.97
2022-11-07T15:08:33.640Z,16.57
2022-11-07T15:11:07.331Z,17.83
2022-11-07T15:13:36.293Z,17.97
2022-11-07T15:16:07.140Z,18.60
2022-11-07T15:18:40.115Z,18.70
2022-11-07T15:21:12.779Z,17.03
2022-11-07T15:23:42.379Z,18.57
2022-11-07T15:26:13.120Z,20.57
2022-11-07T15:28:50.080Z,19.23
2022-11-07T15:31:24.001Z,17.43
2022-11-07T15:33:53.625Z,19.23
2022-11-07T15:36:22.468Z,20.43
2022-11-07T15:38:52.916Z,20.97
2022-11-07T15:41:21.113Z,20.40
2022-11-07T15:43:49.304Z,22.57
2022-11-07T15:46:25.552Z,19.63
2022-11-07T15:48:54.137Z,21.87
2022-11-07T15:51:22.295Z,19.80
2022-11-07T15:53:51.871Z,21.17
2022-11-07T15:56:23.076Z,18.73
2022-11-07T15:58:51.560Z,20.07
2022-11-07T16:01:19.886Z,24.10
2022-11-07T16:03:48.252Z,24.07
2022-11-07T16:06:22.093Z,25.80
2022-11-07T16:08:51.656Z,26.03
2022-11-07T16:11:19.920Z,23.23
2022-11-07T16:13:50.775Z,23.83
2022-11-07T16:16:22.651Z,25.07
2022-11-07T16:18:53.377Z,24.33
2022-11-07T16:21:22.219Z,24.40
2022-11-07T16:23:52.643Z,27.80
2022-11-07T16:26:27.427Z,23.83
2022-11-07T16:28:55.599Z,27.37
2022-11-07T16:31:23.814Z,25.00
2022-11-07T16:33:53.360Z,24.00
2022-11-07T16:36:24.336Z,26.50
2022-11-07T16:38:54.250Z,26.13
2022-11-07T16:41:23.132Z,25.60
2022-11-07T16:43:51.898Z,23.30
2022-11-07T16:46:22.434Z,23.90
2022-11-07T16:48:54.992Z,20.97
2022-11-07T16:51:23.899Z,21.73
2022-11-07T16:53:53.472Z,22.23
2022-11-07T16:56:25.731Z,20.83
2022-11-07T16:58:55.382Z,21.27
2022-11-07T17:01:25.354Z,20.40
2022-11-07T17:03:54.347Z,20.70
2022-11-07T17:06:28.744Z,21.70
2022-11-07T17:09:07.189Z,21.40
2022-11-07T17:11:37.739Z,21.10
2022-11-07T17:14:06.002Z,20.00
2022-11-07T17:16:36.830Z,21.90
2022-11-07T17:19:06.277Z,20.10
2022-11-07T17:21:37.371Z,21.50
2022-11-07T17:24:08.096Z,22.30
2022-11-07T17:26:38.878Z,22.43
2022-11-07T17:29:08.880Z,23.60
2022-11-07T17:31:37.062Z,21.55
2022-11-07T17:34:05.376Z,22.97
2022-11-07T17:36:37.806Z,25.07
2022-11-07T17:39:11.253Z,23.33
2022-11-07T17:41:40.574Z,21.50
2022-11-07T17:44:08.833Z,24.38
2022-11-07T17:46:38.653Z,22.83
2022-11-07T17:49:09.114Z,23.13
2022-11-07T17:51:37.433Z,24.50
2022-11-07T17:54:07.889Z,25.60
2022-11-07T17:56:36.237Z,26.03
2022-11-07T17:59:07.061Z,23.58
2022-11-07T18:01:37.463Z,24.13
2022-11-07T18:04:07.761Z,24.77
2022-11-07T18:06:37.784Z,24.87
2022-11-07T18:09:10.982Z,25.93
2022-11-07T18:11:39.200Z,26.40
2022-11-07T18:14:07.659Z,25.60
2022-11-07T18:16:37.429Z,25.52
2022-11-07T18:19:07.197Z,25.90
2022-11-07T18:21:35.427Z,23.30
2022-11-07T18:24:03.656Z,24.17
2022-11-07T18:26:34.821Z,23.43
2022-11-07T18:29:05.525Z,25.47
2022-11-07T18:31:33.828Z,25.00
2022-11-07T18:34:04.553Z,24.30
2022-11-07T18:36:35.132Z,27.58
2022-11-07T18:39:04.529Z,26.38
2022-11-07T18:41:34.164Z,25.80
2022-11-07T18:44:05.038Z,26.15
2022-11-07T18:46:33.716Z,25.02
2022-11-07T18:49:02.059Z,25.80
2022-11-07T18:51:30.284Z,26.60
2022-11-07T18:54:00.666Z,26.45
2022-11-07T18:56:29.055Z,26.25
2022-11-07T18:58:58.560Z,28.98
2022-11-07T19:01:29.381Z,27.85
2022-11-07T19:03:59.053Z,29.08
2022-11-07T19:06:29.125Z,29.10
2022-11-07T19:08:57.529Z,29.58
2022-11-07T19:11:29.159Z,29.48
2022-11-07T19:14:01.275Z,28.88
2022-11-07T19:16:30.524Z,29.20
2022-11-07T19:19:00.469Z,29.20
2022-11-07T19:21:28.806Z,28.70
2022-11-07T19:23:57.048Z,29.33
2022-11-07T19:26:25.487Z,29.45
2022-11-07T19:28:54.253Z,28.02
2022-11-07T19:31:23.868Z,27.45
2022-11-07T19:33:52.008Z,30.23
2022-11-07T19:36:21.571Z,27.17
2022-11-07T19:38:50.583Z,28.35
2022-11-07T19:41:19.619Z,30.92
2022-11-07T19:43:50.110Z,28.77
2022-11-07T19:46:21.092Z,27.70
2022-11-07T19:48:52.672Z,25.38
2022-11-07T19:51:23.224Z,24.80
2022-11-07T19:53:55.994Z,25.85
2022-11-07T19:56:26.335Z,36.17
2022-11-07T19:58:55.068Z,39.05
2022-11-07T20:01:25.839Z,38.35
2022-11-07T20:03:56.294Z,32.95
2022-11-07T20:06:27.227Z,30.98
2022-11-07T20:08:55.435Z,26.80
2022-11-07T20:11:26.123Z,26.83
2022-11-07T20:14:02.772Z,26.70
2022-11-07T20:16:31.791Z,27.52
2022-11-07T20:19:01.850Z,22.05
2022-11-07T20:21:30.391Z,24.55
2022-11-07T20:23:59.869Z,25.17
2022-11-07T20:26:29.617Z,22.70
2022-11-07T20:28:57.963Z,23.40
2022-11-07T20:31:28.357Z,26.75
2022-11-07T20:33:59.091Z,22.27
2022-11-07T20:36:31.132Z,22.10
2022-11-07T20:39:00.245Z,21.10
2022-11-07T20:41:28.535Z,21.73
2022-11-07T20:43:57.368Z,21.98
2022-11-07T20:46:25.652Z,23.45
2022-11-07T20:48:54.158Z,23.00
2022-11-07T20:51:25.308Z,22.50
2022-11-07T20:53:55.900Z,24.63
2022-11-07T20:56:26.547Z,24.65
2022-11-07T20:58:55.356Z,24.42
2022-11-07T21:01:26.385Z,24.58
2022-11-07T21:03:55.436Z,26.15
2022-11-07T21:06:23.602Z,25.77
2022-11-07T21:08:52.271Z,26.55
2022-11-07T21:11:22.981Z,29.20
2022-11-07T21:13:53.349Z,26.05
2022-11-07T21:16:22.779Z,31.13
2022-11-07T21:18:51.668Z,27.70
2022-11-07T21:21:22.789Z,27.88
2022-11-07T21:23:52.679Z,27.90
2022-11-07T21:26:24.044Z,29.42
2022-11-07T21:28:52.188Z,29.23
2022-11-07T21:31:23.901Z,31.17
2022-11-07T21:33:52.709Z,33.60
2022-11-07T21:36:22.416Z,29.67
2022-11-07T21:38:50.700Z,30.30
2022-11-07T21:41:19.541Z,31.73
2022-11-07T21:43:49.440Z,31.98
2022-11-07T21:46:19.632Z,30.52
2022-11-07T21:48:48.208Z,31.17
2022-11-07T21:51:17.946Z,29.67
2022-11-07T21:53:46.888Z,28.00
2022-11-07T21:56:17.636Z,29.60
2022-11-07T21:58:45.818Z,29.58
2022-11-07T22:01:15.332Z,28.50
2022-11-07T22:04:05.165Z,30.55
2022-11-07T22:06:34.851Z,29.10
2022-11-07T22:09:04.086Z,29.02
2022-11-07T22:11:32.367Z,28.08
2022-11-07T22:14:00.580Z,29.65
2022-11-07T22:16:30.252Z,29.05
2022-11-07T22:18:59.939Z,30.63
2022-11-07T22:21:28.291Z,29.23
2022-11-07T22:23:57.141Z,30.00
2022-11-07T22:26:27.656Z,30.42
2022-11-07T22:28:56.029Z,30.25
2022-11-07T22:31:26.022Z,28.65
2022-11-07T22:33:55.921Z,28.23
2022-11-07T22:36:24.374Z,29.77
2022-11-07T22:38:52.703Z,28.45
2022-11-07T22:41:23.215Z,29.38
2022-11-07T22:43:52.428Z,30.15
2022-11-07T22:46:22.180Z,29.45
2022-11-07T22:48:51.603Z,32.00
2022-11-07T22:51:22.886Z,28.90
2022-11-07T22:53:56.611Z,29.65
2022-11-07T22:56:24.749Z,29.38
2022-11-07T22:58:53.010Z,30.10
2022-11-07T23:01:24.019Z,29.75
2022-11-07T23:03:53.264Z,29.30
2022-11-07T23:06:23.211Z,29.92
2022-11-07T23:08:52.133Z,28.30
2022-11-07T23:14:13.687Z,27.73
2022-11-07T23:16:45.214Z,28.88
2022-11-07T23:19:15.625Z,28.80
2022-11-07T23:21:45.423Z,28.88
2022-11-07T23:24:14.168Z,28.20
2022-11-07T23:26:42.680Z,28.10
2022-11-07T23:29:14.251Z,28.90
2022-11-07T23:31:45.303Z,28.02
2022-11-07T23:34:14.287Z,28.95
2022-11-07T23:36:44.481Z,28.30
2022-11-07T23:39:17.100Z,28.30
2022-11-07T23:41:45.957Z,30.50
2022-11-07T23:44:14.801Z,29.35
2022-11-07T23:47:01.358Z,28.20
2022-11-07T23:49:46.488Z,28.70
2022-11-07T23:52:14.972Z,29.92
2022-11-07T23:55:02.091Z,30.23
2022-11-07T23:57:30.463Z,26.70
